Time;durP1;ratioP1;P1;durP2;ratioP2;P2;SDS_P1;SDS_P2;PMS_P1;PMS_P2;Temp;Humidity;BMP_temperature;BMP_pressure;BME280_temperature;BME280_humidity;BME280_pressure;Samples;Min_cycle;Max_cycle;Signal;HPM_P1;HPM_P2
2021/12/09 00:01:01;;;;;;;;;;;;;;;5.43;70.77;98450.19;5050923;28;19928;-60
2021/12/09 00:03:31;;;;;;;;;;;;;;;5.41;70.91;98446.81;5052370;28;19925;-61
2021/12/09 00:05:59;;;;;;;;;;;;;;;5.40;70.90;98446.00;5051090;28;20377;-62
2021/12/09 00:08:28;;;;;;;;;;;;;;;5.41;70.83;98454.66;5051630;28;19932;-61
2021/12/09 00:10:56;;;;;;;;;;;;;;;5.40;70.98;98455.59;5050797;28;19928;-61
2021/12/09 00:13:23;;;;;;;;;;;;;;;5.40;70.86;98455.59;5051965;28;19924;-62
2021/12/09 00:15:50;;;;;;;;;;;;;;;5.39;70.91;98454.75;5052482;28;19924;-60
2021/12/09 00:18:17;;;;;;;;;;;;;;;5.40;70.97;98452.97;5052052;28;19924;-62
2021/12/09 00:20:44;;;;;;;;;;;;;;;5.39;70.91;98451.31;5051776;28;19955;-61
2021/12/09 00:23:11;;;;;;;;;;;;;;;5.39;71.03;98456.53;5051909;28;19967;-62
2021/12/09 00:25:38;;;;;;;;;;;;;;;5.38;70.68;98458.28;5051909;28;19920;-61
2021/12/09 00:28:05;;;;;;;;;;;;;;;5.39;71.01;98464.34;5051574;28;19928;-61
2021/12/09 00:30:32;;;;;;;;;;;;;;;5.39;70.74;98464.34;5051900;28;19928;-60
2021/12/09 00:33:00;;;;;;;;;;;;;;;5.40;70.87;98464.25;5050407;28;19925;-61
2021/12/09 00:35:35;;;;;;;;;;;;;;;5.39;70.69;98462.59;5051758;28;19927;-61
2021/12/09 00:38:07;;;;;;;;;;;;;;;5.39;70.84;98456.53;5051595;28;19924;-61
2021/12/09 00:40:35;;;;;;;;;;;;;;;5.39;70.77;98461.75;5050040;28;19920;-63
2021/12/09 00:43:02;;;;;;;;;;;;;;;5.37;70.63;98464.44;5051435;28;19928;-61
2021/12/09 00:45:29;;;;;;;;;;;;;;;5.35;70.67;98461.91;5050391;28;19932;-62
2021/12/09 00:47:55;;;;;;;;;;;;;;;5.34;70.83;98462.84;5051525;28;19935;-60
2021/12/09 00:50:23;;;;;;;;;;;;;;;5.33;70.57;98461.16;5051222;28;19943;-61
2021/12/09 00:52:49;;;;;;;;;;;;;;;5.33;70.88;98460.31;5051250;28;20514;-63
2021/12/09 00:55:16;;;;;;;;;;;;;;;5.31;70.92;98454.34;5051172;28;19943;-61
2021/12/09 00:57:43;;;;;;;;;;;;;;;5.32;70.99;98469.06;5051479;28;19966;-63
2021/12/09 01:00:12;;;;;;;;;;;;;;;5.33;71.06;98471.59;5051079;28;19928;-62
2021/12/09 01:02:38;;;;;;;;;;;;;;;5.37;71.36;98479.22;5051487;28;19924;-60
2021/12/09 01:05:06;;;;;;;;;;;;;;;5.39;71.28;98485.22;5051170;28;20368;-63
2021/12/09 01:07:33;;;;;;;;;;;;;;;5.44;71.57;98477.97;5051183;28;19921;-60
2021/12/09 01:09:59;;;;;;;;;;;;;;;5.49;71.67;98475.94;5050964;28;19924;-62
2021/12/09 01:12:26;;;;;;;;;;;;;;;5.54;71.58;98484.38;5051020;28;19954;-60
2021/12/09 01:14:52;;;;;;;;;;;;;;;5.60;71.73;98470.09;5050873;28;20280;-60
2021/12/09 01:17:19;;;;;;;;;;;;;;;5.65;71.71;98475.94;5051118;28;19950;-60
2021/12/09 01:19:46;;;;;;;;;;;;;;;5.69;71.74;98479.19;5049886;28;19932;-62
2021/12/09 01:22:13;;;;;;;;;;;;;;;5.74;71.77;98479.75;5050958;28;19921;-61
2021/12/09 01:24:39;;;;;;;;;;;;;;;5.80;71.76;98475.97;5050873;28;19932;-60
2021/12/09 01:27:06;;;;;;;;;;;;;;;5.83;71.84;98474.00;5051122;28;19921;-61
2021/12/09 01:29:39;;;;;;;;;;;;;;;5.87;71.90;98472.91;5049443;28;19920;-60
2021/12/09 01:32:08;;;;;;;;;;;;;;;5.90;71.68;98469.25;5049766;28;20388;-62
2021/12/09 01:34:35;;;;;;;;;;;;;;;5.94;71.66;98480.38;5049675;28;19932;-60
2021/12/09 01:37:02;;;;;;;;;;;;;;;5.97;71.60;98477.56;5051214;28;20743;-60
2021/12/09 01:39:30;;;;;;;;;;;;;;;6.00;71.58;98480.88;5050605;28;19986;-62
2021/12/09 01:41:57;;;;;;;;;;;;;;;6.04;71.85;98481.53;5050673;28;20479;-61
2021/12/09 01:44:24;;;;;;;;;;;;;;;6.07;71.89;98497.06;5050668;28;19924;-62
2021/12/09 01:46:51;;;;;;;;;;;;;;;6.10;71.48;98494.22;5050760;28;19928;-61
2021/12/09 01:49:18;;;;;;;;;;;;;;;6.13;71.57;98495.81;5050273;28;19927;-61
2021/12/09 01:51:46;;;;;;;;;;;;;;;6.16;71.59;98500.06;5050746;28;19929;-60
2021/12/09 01:54:14;;;;;;;;;;;;;;;6.19;71.45;98499.84;5050687;28;19932;-62
2021/12/09 01:56:40;;;;;;;;;;;;;;;6.22;71.71;98507.53;5049527;28;19921;-62
2021/12/09 01:59:07;;;;;;;;;;;;;;;6.24;71.81;98501.25;5050558;28;19921;-62
2021/12/09 02:01:34;;;;;;;;;;;;;;;6.28;71.81;98503.69;5049616;28;20293;-60
2021/12/09 02:04:03;;;;;;;;;;;;;;;6.30;71.42;98494.84;5050540;28;19921;-60
2021/12/09 02:06:30;;;;;;;;;;;;;;;6.32;71.59;98495.56;5050619;28;19921;-60
2021/12/09 02:08:56;;;;;;;;;;;;;;;6.36;71.46;98499.69;5050541;28;20592;-61
2021/12/09 02:11:24;;;;;;;;;;;;;;;6.37;70.95;98504.00;5050343;28;19929;-62
2021/12/09 02:13:54;;;;;;;;;;;;;;;6.39;71.42;98501.28;5050610;28;19920;-61
2021/12/09 02:16:21;;;;;;;;;;;;;;;6.39;71.38;98504.72;5051164;28;20289;-61
2021/12/09 02:18:48;;;;;;;;;;;;;;;6.39;71.49;98504.72;5050553;28;19996;-60
2021/12/09 02:21:16;;;;;;;;;;;;;;;6.40;71.25;98505.59;5050318;28;19931;-61
2021/12/09 02:23:45;;;;;;;;;;;;;;;6.41;71.15;98499.41;5050309;28;19921;-61
2021/12/09 02:26:12;;;;;;;;;;;;;;;6.41;71.27;98490.72;5050453;28;20027;-60
2021/12/09 02:28:40;;;;;;;;;;;;;;;6.42;71.17;98488.03;5050337;28;19924;-61
2021/12/09 02:31:07;;;;;;;;;;;;;;;6.43;71.28;98488.88;5051672;28;20012;-60
2021/12/09 02:33:34;;;;;;;;;;;;;;;6.44;71.54;98490.56;5054086;28;19928;-60
2021/12/09 02:36:00;;;;;;;;;;;;;;;6.45;71.49;98484.38;5054090;28;19928;-62
2021/12/09 02:41:37;;;;;;;;;;;;;;;6.45;71.35;98490.47;5053145;28;19963;-60
2021/12/09 02:44:05;;;;;;;;;;;;;;;6.46;71.20;98499.13;5054174;28;20373;-60
2021/12/09 02:46:36;;;;;;;;;;;;;;;6.43;70.08;98496.72;5052584;28;19944;-61
2021/12/09 02:49:04;;;;;;;;;;;;;;;6.39;69.59;98496.03;5053841;28;19963;-61
2021/12/09 02:51:31;;;;;;;;;;;;;;;6.37;69.01;98497.91;5053662;28;19920;-62
2021/12/09 02:53:57;;;;;;;;;;;;;;;6.32;68.60;98498.19;5053481;28;20403;-61
2021/12/09 02:56:24;;;;;;;;;;;;;;;6.29;69.59;98495.78;5053940;28;19947;-63
2021/12/09 02:58:50;;;;;;;;;;;;;;;6.24;69.09;98496.03;5052500;28;19920;-60
2021/12/09 03:01:20;;;;;;;;;;;;;;;6.23;69.39;98493.50;5053232;28;19921;-61
2021/12/09 03:03:51;;;;;;;;;;;;;;;6.21;69.48;98487.56;5053675;28;19974;-60
2021/12/09 03:06:19;;;;;;;;;;;;;;;6.18;69.39;98490.34;5052325;28;19978;-63
2021/12/09 03:08:46;;;;;;;;;;;;;;;6.14;68.63;98492.31;5053474;28;19928;-60
2021/12/09 03:11:14;;;;;;;;;;;;;;;6.11;68.41;98487.25;5052967;28;19932;-60
2021/12/09 03:13:42;;;;;;;;;;;;;;;6.08;68.62;98495.25;5053259;28;19921;-61
2021/12/09 03:16:09;;;;;;;;;;;;;;;6.06;69.00;98494.53;5053029;28;20014;-61
2021/12/09 03:18:43;;;;;;;;;;;;;;;6.04;69.62;98494.59;5053252;28;19925;-60
2021/12/09 03:21:20;;;;;;;;;;;;;;;6.02;69.29;98493.00;5052796;28;19921;-60
2021/12/09 03:23:48;;;;;;;;;;;;;;;5.99;69.80;98492.22;5051938;28;19920;-61
2021/12/09 03:26:16;;;;;;;;;;;;;;;5.96;69.82;98495.03;5053003;28;19924;-63
2021/12/09 03:28:43;;;;;;;;;;;;;;;5.94;69.58;98496.06;5053105;28;19920;-60
2021/12/09 03:31:09;;;;;;;;;;;;;;;5.91;69.92;98497.03;5052774;28;19928;-60
2021/12/09 03:33:36;;;;;;;;;;;;;;;5.87;69.65;98491.16;5052806;28;19931;-60
2021/12/09 03:36:05;;;;;;;;;;;;;;;5.85;69.96;98498.28;5052602;28;20414;-63
2021/12/09 03:38:32;;;;;;;;;;;;;;;5.81;69.60;98494.16;5053002;28;19920;-60
2021/12/09 03:40:59;;;;;;;;;;;;;;;5.79;69.93;98495.19;5052059;28;19967;-63
2021/12/09 03:43:25;;;;;;;;;;;;;;;5.77;69.95;98499.63;5052149;28;20411;-60
2021/12/09 03:45:54;;;;;;;;;;;;;;;5.74;69.90;98498.03;5052569;28;19966;-60
2021/12/09 03:48:22;;;;;;;;;;;;;;;5.70;70.07;98494.78;5051277;28;20388;-60
2021/12/09 03:50:49;;;;;;;;;;;;;;;5.69;69.81;98500.06;5052388;28;19920;-62
2021/12/09 03:53:16;;;;;;;;;;;;;;;5.67;69.61;98499.31;5052709;28;20411;-61
2021/12/09 03:55:42;;;;;;;;;;;;;;;5.65;70.15;98493.34;5052762;28;19921;-60
2021/12/09 03:58:09;;;;;;;;;;;;;;;5.61;69.58;98490.91;5052416;28;20588;-63
2021/12/09 04:00:35;;;;;;;;;;;;;;;5.60;69.85;98484.00;5052043;28;19979;-62
2021/12/09 04:03:03;;;;;;;;;;;;;;;5.59;69.58;98482.34;5051394;28;19955;-60
2021/12/09 04:05:30;;;;;;;;;;;;;;;5.59;69.89;98477.13;5052292;28;19920;-62
2021/12/09 04:07:56;;;;;;;;;;;;;;;5.57;69.37;98480.75;5052284;28;19928;-60
2021/12/09 04:10:23;;;;;;;;;;;;;;;5.55;69.44;98479.97;5051835;28;19920;-60
2021/12/09 04:12:49;;;;;;;;;;;;;;;5.54;69.74;98483.53;5052113;28;19932;-63
2021/12/09 04:15:16;;;;;;;;;;;;;;;5.52;69.63;98474.91;5052036;28;19928;-61
2021/12/09 04:17:42;;;;;;;;;;;;;;;5.48;69.91;98480.34;5052225;28;19920;-61
2021/12/09 04:20:09;;;;;;;;;;;;;;;5.46;69.68;98487.38;5051992;28;20031;-60
2021/12/09 04:22:36;;;;;;;;;;;;;;;5.45;69.24;98496.16;5052081;28;20395;-62
2021/12/09 04:25:05;;;;;;;;;;;;;;;5.43;69.52;98500.63;5052177;28;19928;-61
2021/12/09 04:27:31;;;;;;;;;;;;;;;5.40;69.31;98494.72;5051005;28;19928;-61
2021/12/09 04:29:58;;;;;;;;;;;;;;;5.38;69.44;98492.19;5051946;28;19928;-62
2021/12/09 04:32:24;;;;;;;;;;;;;;;5.36;69.44;98494.06;5050289;28;19921;-61
2021/12/09 04:34:57;;;;;;;;;;;;;;;5.32;69.34;98503.84;5051868;28;19924;-61
2021/12/09 04:37:23;;;;;;;;;;;;;;;5.31;69.74;98494.31;5051986;28;19963;-60
2021/12/09 04:39:50;;;;;;;;;;;;;;;5.30;70.09;98510.06;5051744;28;19967;-63
2021/12/09 04:42:16;;;;;;;;;;;;;;;5.30;70.16;98513.50;5051549;28;20010;-61
2021/12/09 04:44:44;;;;;;;;;;;;;;;5.30;70.11;98513.50;5051753;28;20419;-61
2021/12/09 04:47:10;;;;;;;;;;;;;;;5.30;70.16;98513.50;5051602;28;19929;-61
2021/12/09 04:49:37;;;;;;;;;;;;;;;5.31;70.40;98520.41;5051350;28;19971;-62
2021/12/09 04:52:04;;;;;;;;;;;;;;;5.33;70.40;98513.34;5051909;28;20292;-60
2021/12/09 04:54:30;;;;;;;;;;;;;;;5.33;70.49;98513.34;5051347;28;20356;-62
2021/12/09 04:56:57;;;;;;;;;;;;;;;5.35;69.89;98515.88;5050220;28;20332;-67
2021/12/09 04:59:23;;;;;;;;;;;;;;;5.37;70.29;98513.16;5051687;28;19973;-61
2021/12/09 05:01:50;;;;;;;;;;;;;;;5.38;70.78;98515.69;5051509;28;19974;-61
2021/12/09 05:04:17;;;;;;;;;;;;;;;5.38;70.30;98520.91;5050148;28;19928;-60
2021/12/09 05:06:44;;;;;;;;;;;;;;;5.39;70.28;98516.53;5051361;28;19924;-63
2021/12/09 05:09:16;;;;;;;;;;;;;;;5.39;69.71;98521.75;5050830;28;19928;-64
2021/12/09 05:14:09;;;;;;;;;;;;;;;5.40;69.71;98516.47;5051558;28;19928;-64
2021/12/09 05:16:35;;;;;;;;;;;;;;;5.40;69.33;98516.47;5051026;28;19920;-63
2021/12/09 05:19:02;;;;;;;;;;;;;;;5.41;70.00;98517.28;5050884;28;19927;-62
2021/12/09 05:21:34;;;;;;;;;;;;;;;5.43;70.07;98512.84;5050801;28;19928;-65
2021/12/09 05:24:00;;;;;;;;;;;;;;;5.42;69.81;98519.81;5050223;28;19928;-63
2021/12/09 05:26:32;;;;;;;;;;;;;;;5.43;69.80;98520.66;5049927;28;19924;-65
2021/12/09 05:28:59;;;;;;;;;;;;;;;5.42;69.65;98522.41;5051077;28;19920;-62
2021/12/09 05:34:12;;;;;;;;;;;;;;;5.38;68.70;98517.47;5050782;28;19924;-63
2021/12/09 05:36:38;;;;;;;;;;;;;;;5.37;68.92;98523.59;5050770;28;20327;-62
2021/12/09 05:39:07;;;;;;;;;;;;;;;5.34;69.53;98541.13;5050868;28;20336;-64
2021/12/09 05:41:33;;;;;;;;;;;;;;;5.32;69.00;98550.81;5050890;28;19974;-65
2021/12/09 05:44:00;;;;;;;;;;;;;;;5.31;69.36;98549.09;5050722;28;19929;-63
2021/12/09 05:46:27;;;;;;;;;;;;;;;5.27;68.75;98547.59;5049416;28;19924;-61
2021/12/09 05:48:53;;;;;;;;;;;;;;;5.25;69.26;98554.69;5050629;28;20343;-63
2021/12/09 05:51:21;;;;;;;;;;;;;;;5.23;69.08;98551.28;5050544;28;19920;-62
2021/12/09 05:53:48;;;;;;;;;;;;;;;5.19;69.38;98547.16;5050576;28;19966;-64
2021/12/09 05:56:14;;;;;;;;;;;;;;;5.17;69.21;98544.66;5050700;28;19924;-63
2021/12/09 05:58:41;;;;;;;;;;;;;;;5.15;69.37;98546.50;5049580;28;19920;-62
2021/12/09 06:01:07;;;;;;;;;;;;;;;5.14;69.70;98543.97;5050686;28;19925;-62
2021/12/09 06:03:34;;;;;;;;;;;;;;;5.13;69.52;98552.72;5050462;28;19928;-63
2021/12/09 06:06:06;;;;;;;;;;;;;;;5.10;69.20;98551.13;5053110;28;20377;-63
2021/12/09 06:08:33;;;;;;;;;;;;;;;5.10;69.30;98561.56;5054486;28;20372;-63
2021/12/09 06:11:00;;;;;;;;;;;;;;;5.07;69.05;98570.41;5053983;28;19986;-62
2021/12/09 06:13:30;;;;;;;;;;;;;;;5.05;68.72;98572.22;5054534;28;20343;-63
2021/12/09 06:15:56;;;;;;;;;;;;;;;5.04;69.09;98574.91;5054323;28;19924;-62
2021/12/09 06:18:23;;;;;;;;;;;;;;;5.03;69.32;98576.69;5054198;28;19920;-62
2021/12/09 06:20:50;;;;;;;;;;;;;;;5.02;69.30;98577.63;5052889;28;20370;-67
2021/12/09 06:23:17;;;;;;;;;;;;;;;5.01;68.63;98573.31;5054371;28;19928;-63
2021/12/09 06:25:44;;;;;;;;;;;;;;;5.01;69.34;98570.72;5052900;28;20377;-63
2021/12/09 06:28:10;;;;;;;;;;;;;;;5.03;69.53;98568.03;5053804;28;19935;-62
2021/12/09 06:30:37;;;;;;;;;;;;;;;5.04;69.63;98570.56;5053558;28;19986;-63
2021/12/09 06:33:05;;;;;;;;;;;;;;;5.05;69.69;98559.19;5054295;28;20262;-63
2021/12/09 06:35:33;;;;;;;;;;;;;;;5.06;70.08;98558.28;5054126;28;19921;-63
2021/12/09 06:38:00;;;;;;;;;;;;;;;5.08;69.47;98556.44;5053855;28;19924;-63
2021/12/09 06:40:27;;;;;;;;;;;;;;;5.08;69.51;98559.03;5052569;28;19921;-65
2021/12/09 06:42:53;;;;;;;;;;;;;;;5.09;69.00;98568.53;5054002;28;19967;-64
2021/12/09 06:45:22;;;;;;;;;;;;;;;5.08;68.70;98572.06;5053980;28;19920;-62
2021/12/09 06:47:49;;;;;;;;;;;;;;;5.09;69.11;98583.38;5053593;28;19975;-62
2021/12/09 06:50:18;;;;;;;;;;;;;;;5.07;68.94;98574.75;5052243;28;19920;-63
2021/12/09 06:52:44;;;;;;;;;;;;;;;5.07;69.23;98574.75;5053480;28;19921;-62
2021/12/09 06:55:12;;;;;;;;;;;;;;;5.05;69.32;98577.44;5053690;28;19978;-64
2021/12/09 06:57:39;;;;;;;;;;;;;;;5.04;69.17;98575.78;5052398;28;19971;-64
2021/12/09 07:00:07;;;;;;;;;;;;;;;5.01;69.16;98569.88;5053145;28;19924;-62
2021/12/09 07:02:34;;;;;;;;;;;;;;;4.99;69.12;98567.34;5053737;28;19938;-63
2021/12/09 07:05:01;;;;;;;;;;;;;;;4.95;69.11;98563.22;5053271;28;20365;-63
2021/12/09 07:07:27;;;;;;;;;;;;;;;4.92;69.25;98569.44;5052959;28;19928;-65
2021/12/09 07:09:53;;;;;;;;;;;;;;;4.89;69.18;98566.13;5052860;28;20381;-62
2021/12/09 07:12:20;;;;;;;;;;;;;;;4.86;69.18;98569.75;5053188;28;19921;-62
2021/12/09 07:14:47;;;;;;;;;;;;;;;4.86;69.44;98571.53;5053319;28;19927;-62
2021/12/09 07:17:13;;;;;;;;;;;;;;;4.81;69.03;98566.56;5051914;28;19967;-62
2021/12/09 07:19:40;;;;;;;;;;;;;;;4.79;69.33;98577.06;5053034;28;19935;-63
2021/12/09 07:22:06;;;;;;;;;;;;;;;4.78;69.28;98579.75;5053079;28;19982;-63
2021/12/09 07:24:33;;;;;;;;;;;;;;;4.76;69.28;98579.00;5053228;28;20358;-62
2021/12/09 07:26:59;;;;;;;;;;;;;;;4.73;69.48;98573.94;5052703;28;19974;-64
2021/12/09 07:29:27;;;;;;;;;;;;;;;4.71;69.12;98579.22;5051611;28;19927;-63
2021/12/09 07:31:53;;;;;;;;;;;;;;;4.68;69.60;98582.81;5052850;28;19983;-61
2021/12/09 07:34:21;;;;;;;;;;;;;;;4.68;69.64;98582.00;5052851;28;19924;-62
2021/12/09 07:36:47;;;;;;;;;;;;;;;4.66;69.47;98586.44;5053241;28;19931;-64
2021/12/09 07:39:14;;;;;;;;;;;;;;;4.64;69.53;98585.69;5052383;28;20019;-64
2021/12/09 07:41:40;;;;;;;;;;;;;;;4.61;69.09;98583.22;5052669;28;19925;-63
2021/12/09 07:44:07;;;;;;;;;;;;;;;4.59;69.65;98591.13;5052635;28;19920;-67
2021/12/09 07:46:34;;;;;;;;;;;;;;;4.58;69.80;98592.06;5052891;28;19966;-63
2021/12/09 07:49:01;;;;;;;;;;;;;;;4.57;69.74;98587.78;5052476;28;19974;-62
2021/12/09 07:51:27;;;;;;;;;;;;;;;4.56;69.71;98586.06;5052490;28;19935;-62
2021/12/09 07:53:54;;;;;;;;;;;;;;;4.53;69.57;98581.84;5052439;28;19925;-62
2021/12/09 07:56:20;;;;;;;;;;;;;;;4.53;69.96;98587.06;5052505;28;19925;-63
2021/12/09 07:58:47;;;;;;;;;;;;;;;4.52;69.96;98585.38;5052761;28;19920;-62
2021/12/09 08:01:13;;;;;;;;;;;;;;;4.52;69.99;98588.00;5052280;28;19928;-63
2021/12/09 08:03:40;;;;;;;;;;;;;;;4.53;70.05;98594.06;5052330;28;19990;-64
2021/12/09 08:06:07;;;;;;;;;;;;;;;4.49;69.53;98590.75;5052304;28;19925;-63
2021/12/09 08:08:33;;;;;;;;;;;;;;;4.50;69.57;98584.63;5052197;28;19925;-61
2021/12/09 08:11:00;;;;;;;;;;;;;;;4.48;69.52;98581.25;5052201;28;19984;-62
2021/12/09 08:13:27;;;;;;;;;;;;;;;4.47;69.64;98582.19;5052207;28;19932;-63
2021/12/09 08:15:54;;;;;;;;;;;;;;;4.47;69.93;98581.31;5052278;28;20494;-63
2021/12/09 08:20:48;;;;;;;;;;;;;;;4.48;70.38;98590.84;5051743;28;19961;-63
2021/12/09 08:23:15;;;;;;;;;;;;;;;4.48;69.95;98588.25;5051890;28;19920;-62
2021/12/09 08:25:41;;;;;;;;;;;;;;;4.48;70.31;98589.06;5052274;28;19932;-63
2021/12/09 08:28:08;;;;;;;;;;;;;;;4.47;69.81;98590.00;5051741;28;19928;-62
2021/12/09 08:30:36;;;;;;;;;;;;;;;4.48;69.96;98599.50;5051601;28;19967;-63
2021/12/09 08:33:19;;;;;;;;;;;;;;;4.49;69.98;98602.94;5051788;28;19972;-62
2021/12/09 08:35:46;;;;;;;;;;;;;;;4.48;69.65;98601.28;5051583;28;19990;-62
2021/12/09 08:38:12;;;;;;;;;;;;;;;4.48;70.12;98612.53;5050675;28;19928;-62
2021/12/09 08:40:39;;;;;;;;;;;;;;;4.50;70.17;98615.91;5051483;28;19921;-62
2021/12/09 08:43:05;;;;;;;;;;;;;;;4.49;69.74;98611.59;5051622;28;19924;-64
2021/12/09 08:45:32;;;;;;;;;;;;;;;4.52;70.31;98608.00;5051533;28;19925;-61
2021/12/09 08:47:59;;;;;;;;;;;;;;;4.54;70.14;98617.44;5051537;28;19928;-64
2021/12/09 08:50:27;;;;;;;;;;;;;;;4.53;70.10;98613.13;5051369;28;19924;-61
2021/12/09 08:52:53;;;;;;;;;;;;;;;4.54;70.13;98604.41;5050470;28;19936;-64
2021/12/09 08:55:21;;;;;;;;;;;;;;;4.55;69.87;98611.31;5051377;28;20411;-63
2021/12/09 08:57:49;;;;;;;;;;;;;;;4.56;69.72;98606.91;5051870;28;20047;-62
2021/12/09 09:00:16;;;;;;;;;;;;;;;4.58;70.00;98607.69;5051110;28;19920;-63
2021/12/09 09:02:43;;;;;;;;;;;;;;;4.58;69.63;98610.31;5050003;28;19928;-62
2021/12/09 09:05:13;;;;;;;;;;;;;;;4.59;69.77;98611.16;5051414;28;19925;-63
2021/12/09 09:07:41;;;;;;;;;;;;;;;4.61;69.97;98609.28;5050159;28;19966;-63
2021/12/09 09:10:08;;;;;;;;;;;;;;;4.60;69.52;98607.63;5051280;28;19924;-63
2021/12/09 09:12:36;;;;;;;;;;;;;;;4.62;69.61;98610.97;5050046;28;20285;-62
2021/12/09 09:15:05;;;;;;;;;;;;;;;4.60;69.67;98607.63;5049677;28;19920;-62
2021/12/09 09:17:32;;;;;;;;;;;;;;;4.62;70.43;98611.81;5051615;28;19932;-63
2021/12/09 09:19:58;;;;;;;;;;;;;;;4.64;70.31;98615.19;5051160;28;19935;-62
2021/12/09 09:22:25;;;;;;;;;;;;;;;4.66;70.07;98623.78;5051169;28;20426;-61
2021/12/09 09:24:51;;;;;;;;;;;;;;;4.68;70.24;98618.50;5051204;28;19975;-62
2021/12/09 09:27:18;;;;;;;;;;;;;;;4.68;69.36;98626.31;5049601;28;19932;-64
2021/12/09 09:29:45;;;;;;;;;;;;;;;4.72;70.13;98621.78;5049579;28;19936;-62
2021/12/09 09:32:12;;;;;;;;;;;;;;;4.74;69.67;98633.00;5051071;28;19928;-63
2021/12/09 09:34:39;;;;;;;;;;;;;;;4.77;69.90;98635.41;5050988;28;19925;-63
2021/12/09 09:37:05;;;;;;;;;;;;;;;4.78;69.92;98630.13;5051020;28;19924;-62
2021/12/09 09:39:33;;;;;;;;;;;;;;;4.81;70.35;98643.00;5050953;28;19921;-62
2021/12/09 09:42:18;;;;;;;;;;;;;;;4.86;70.07;98640.16;5054937;28;19921;-62
2021/12/09 09:44:54;;;;;;;;;;;;;;;4.87;69.97;98636.66;5055287;28;19986;-64
2021/12/09 09:47:22;;;;;;;;;;;;;;;4.90;69.69;98648.69;5053747;28;19928;-63
2021/12/09 09:49:49;;;;;;;;;;;;;;;4.91;69.44;98653.81;5054928;28;19928;-64
2021/12/09 09:52:16;;;;;;;;;;;;;;;4.94;69.63;98638.00;5054957;28;19921;-62
2021/12/09 09:54:43;;;;;;;;;;;;;;;4.96;69.46;98637.91;5054718;28;19924;-62
2021/12/09 09:57:10;;;;;;;;;;;;;;;4.97;69.05;98642.22;5054706;28;19950;-63
2021/12/09 09:59:40;;;;;;;;;;;;;;;5.00;68.96;98639.44;5054687;28;19923;-64
2021/12/09 10:02:07;;;;;;;;;;;;;;;5.02;69.35;98640.22;5053608;28;19925;-62
2021/12/09 10:04:44;;;;;;;;;;;;;;;5.05;69.51;98636.63;5054730;28;19920;-62
2021/12/09 10:07:12;;;;;;;;;;;;;;;5.07;69.21;98633.00;5054902;28;20281;-62
2021/12/09 10:09:39;;;;;;;;;;;;;;;5.08;68.92;98639.91;5053004;28;19924;-62
2021/12/09 10:12:06;;;;;;;;;;;;;;;5.13;69.06;98636.19;5053360;28;19925;-64
2021/12/09 10:14:34;;;;;;;;;;;;;;;5.14;68.64;98637.88;5054695;28;19924;-62
2021/12/09 10:17:05;;;;;;;;;;;;;;;5.16;68.52;98642.09;5054360;28;19943;-62
2021/12/09 10:19:33;;;;;;;;;;;;;;;5.20;68.82;98645.41;5054178;28;19925;-62
2021/12/09 10:22:04;;;;;;;;;;;;;;;5.24;68.78;98643.47;5054182;28;19928;-63
2021/12/09 10:24:31;;;;;;;;;;;;;;;5.27;68.69;98635.47;5052984;28;20277;-62
2021/12/09 10:26:58;;;;;;;;;;;;;;;5.30;68.66;98643.97;5054203;28;20337;-63
2021/12/09 10:29:30;;;;;;;;;;;;;;;5.32;68.46;98636.06;5053053;28;20331;-62
2021/12/09 10:32:00;;;;;;;;;;;;;;;5.35;68.57;98628.91;5052847;28;19928;-62
2021/12/09 10:34:46;;;;;;;;;;;;;;;5.38;68.66;98627.91;5052869;28;19929;-62
2021/12/09 10:37:20;;;;;;;;;;;;;;;5.40;68.66;98610.41;5053911;28;19978;-64
2021/12/09 10:40:05;;;;;;;;;;;;;;;5.44;68.64;98614.53;5052651;28;19924;-63
2021/12/09 10:42:43;;;;;;;;;;;;;;;5.49;69.20;98609.06;5053835;28;19950;-64
2021/12/09 10:45:09;;;;;;;;;;;;;;;5.52;68.12;98614.09;5052938;28;19925;-62
2021/12/09 10:55:44;;;;;;;;;;;;;;;5.70;68.19;98614.03;5054015;28;19925;-63
2021/12/09 10:58:12;;;;;;;;;;;;;;;5.73;67.96;98613.84;5053594;28;19925;-63
2021/12/09 11:00:39;;;;;;;;;;;;;;;5.76;68.23;98611.09;5052229;28;19928;-63
2021/12/09 11:03:15;;;;;;;;;;;;;;;5.77;67.98;98609.31;5053492;28;20293;-62
2021/12/09 11:05:47;;;;;;;;;;;;;;;5.80;68.88;98604.72;5052489;28;19932;-63
2021/12/09 11:08:27;;;;;;;;;;;;;;;5.79;67.39;98613.50;5052550;28;19920;-62
2021/12/09 11:11:05;;;;;;;;;;;;;;;5.78;67.37;98610.97;5053398;28;19927;-62
2021/12/09 11:13:55;;;;;;;;;;;;;;;5.78;67.27;98605.75;5052384;28;20372;-63
2021/12/09 11:16:24;;;;;;;;;;;;;;;5.78;67.84;98600.53;5047360;28;20003;-59
2021/12/09 11:18:57;;;;;;;;;;;;;;;5.77;67.56;98588.41;5053459;28;19924;-60
2021/12/09 11:21:29;;;;;;;;;;;;;;;5.80;68.66;98589.06;5052045;28;20400;-60
2021/12/09 11:24:01;;;;;;;;;;;;;;;5.81;68.80;98587.31;5052171;28;19970;-63
2021/12/09 11:27:03;;;;;;;;;;;;;;;5.80;68.23;98576.00;5051860;28;19928;-62
2021/12/09 11:29:22;;;;;;;;;;;;;;;5.83;68.67;98575.84;5052432;28;20401;-62
2021/12/09 11:31:54;;;;;;;;;;;;;;;5.86;68.79;98575.69;5052982;28;19931;-64
2021/12/09 11:34:25;;;;;;;;;;;;;;;5.91;68.86;98585.84;5051646;28;19925;-65
2021/12/09 11:36:57;;;;;;;;;;;;;;;5.95;69.14;98581.31;5051714;28;20361;-62
2021/12/09 11:39:32;;;;;;;;;;;;;;;5.97;68.03;98580.28;5052684;28;19921;-63
2021/12/09 11:42:17;;;;;;;;;;;;;;;6.02;69.45;98582.63;5052796;28;20352;-63
2021/12/09 11:45:02;;;;;;;;;;;;;;;6.06;69.15;98583.34;5051792;28;20387;-63
2021/12/09 11:47:29;;;;;;;;;;;;;;;6.09;68.57;98583.19;5052811;28;19924;-62
2021/12/09 11:50:06;;;;;;;;;;;;;;;6.10;67.67;98577.84;5051321;28;20380;-62
2021/12/09 11:52:33;;;;;;;;;;;;;;;6.12;68.51;98570.78;5051219;28;19925;-62
2021/12/09 11:55:03;;;;;;;;;;;;;;;6.16;68.28;98578.44;5052650;28;19924;-63
2021/12/09 12:11:55;;;;;;;;;;;;;;;6.19;68.47;98579.09;5052413;28;19966;-64
2021/12/09 12:14:29;;;;;;;;;;;;;;;6.20;68.32;98574.72;5052155;28;20288;-63
2021/12/09 12:17:14;;;;;;;;;;;;;;;6.20;67.86;98590.41;5051214;28;19927;-62
2021/12/09 12:19:52;;;;;;;;;;;;;;;6.21;68.13;98579.00;5051939;28;19935;-63
2021/12/09 12:22:45;;;;;;;;;;;;;;;6.22;67.97;98572.84;5052180;28;19931;-61
2021/12/09 12:25:35;;;;;;;;;;;;;;;6.22;67.88;98576.31;5052264;28;19954;-64
2021/12/09 12:28:25;;;;;;;;;;;;;;;6.22;67.66;98572.84;5051822;28;19924;-63
2021/12/09 12:33:50;;;;;;;;;;;;;;;6.28;69.00;98566.41;5052045;28;19925;-63
2021/12/09 12:39:01;;;;;;;;;;;;;;;6.32;68.26;98566.13;5051854;28;19975;-61
2021/12/09 12:41:28;;;;;;;;;;;;;;;6.34;67.99;98561.69;5051652;28;19920;-59
2021/12/09 12:44:02;;;;;;;;;;;;;;;6.35;67.65;98563.34;5051849;28;19928;-62
2021/12/09 12:46:56;;;;;;;;;;;;;;;6.36;67.63;98569.44;5050419;28;20410;-62
2021/12/09 12:52:00;;;;;;;;;;;;;;;6.41;67.61;98569.16;5051324;28;19982;-60
2021/12/09 12:54:41;;;;;;;;;;;;;;;6.40;67.76;98568.31;5050403;28;19925;-59
2021/12/09 12:57:18;;;;;;;;;;;;;;;6.42;68.36;98570.84;5051573;28;19974;-60
2021/12/09 12:59:46;;;;;;;;;;;;;;;6.44;68.76;98566.34;5051103;28;19974;-60
2021/12/09 13:05:18;;;;;;;;;;;;;;;6.43;67.61;98568.13;5051367;28;20012;-60
2021/12/09 13:13:50;;;;;;;;;;;;;;;6.44;67.83;98561.13;5046305;28;20442;-63
2021/12/09 13:19:05;;;;;;;;;;;;;;;6.46;67.82;98556.63;5051137;28;19925;-62
2021/12/09 13:21:53;;;;;;;;;;;;;;;6.48;67.79;98557.41;5051445;28;19978;-61
2021/12/09 13:24:26;;;;;;;;;;;;;;;6.49;68.68;98554.69;5049963;28;20431;-60
2021/12/09 13:27:03;;;;;;;;;;;;;;;6.51;68.68;98546.78;5051180;28;19920;-61
2021/12/09 13:32:45;;;;;;;;;;;;;;;6.52;68.29;98558.91;5050899;28;20319;-62
2021/12/09 13:35:17;;;;;;;;;;;;;;;6.54;68.43;98561.44;5051103;28;19921;-62
2021/12/09 13:39:07;;;;;;;;;;;;;;;6.54;68.07;98557.03;5049774;28;19920;-60
2021/12/09 13:46:36;;;;;;;;;;;;;;;6.53;67.18;98562.38;5050825;28;19928;-60
2021/12/09 13:49:10;;;;;;;;;;;;;;;6.53;67.52;98560.56;5051097;28;19948;-63
2021/12/09 13:56:45;;;;;;;;;;;;;;;6.52;66.76;98564.13;5049412;28;19928;-61
2021/12/09 13:59:15;;;;;;;;;;;;;;;6.54;68.04;98569.28;5050481;28;19967;-60
2021/12/09 14:01:42;;;;;;;;;;;;;;;6.53;67.18;98567.59;5049511;28;19971;-62
2021/12/09 14:04:09;;;;;;;;;;;;;;;6.54;68.36;98571.88;5050842;28;20031;-60
2021/12/09 14:06:35;;;;;;;;;;;;;;;6.53;67.20;98565.81;5050524;28;19956;-60
2021/12/09 14:09:02;;;;;;;;;;;;;;;6.53;67.47;98559.75;5050545;28;19974;-60
2021/12/09 14:11:37;;;;;;;;;;;;;;;6.53;67.55;98565.81;5049426;28;20404;-61
2021/12/09 14:14:08;;;;;;;;;;;;;;;6.53;67.67;98565.81;5033963;28;19929;-61